Time;durP1;ratioP1;P1;durP2;ratioP2;P2;SDS_P1;SDS_P2;PMS_P1;PMS_P2;Temp;Humidity;BMP_temperature;BMP_pressure;BME280_temperature;BME280_humidity;BME280_pressure;Samples;Min_cycle;Max_cycle;Signal;HPM_P1;HPM_P2
2021/03/06 00:02:19;;;;;;;11.80;2.22;;;;;;;1.42;68.58;103113.06;10207523;28;20065;-66
2021/03/06 00:07:15;;;;;;;12.13;2.03;;;;;;;1.30;69.03;103117.34;10206550;28;20042;-69
2021/03/06 00:12:11;;;;;;;7.35;2.05;;;;;;;1.19;68.79;103120.59;10208216;28;20099;-67
2021/03/06 00:17:08;;;;;;;6.28;1.85;;;;;;;1.17;68.69;103122.63;10218686;28;20045;-68
2021/03/06 00:22:04;;;;;;;9.73;2.22;;;;;;;1.27;68.88;103123.13;10205149;28;20076;-67
2021/03/06 00:27:00;;;;;;;9.10;2.20;;;;;;;1.30;68.66;103114.66;10208588;28;20581;-66
2021/03/06 00:31:57;;;;;;;21.65;3.08;;;;;;;1.25;69.27;103115.25;10207398;28;20042;-68
2021/03/06 00:36:53;;;;;;;14.85;2.38;;;;;;;1.14;69.24;103123.00;10199015;28;20057;-68
2021/03/06 00:41:49;;;;;;;10.20;2.08;;;;;;;1.21;68.78;103122.06;10207403;28;20041;-68
2021/03/06 00:46:45;;;;;;;12.10;2.53;;;;;;;1.03;70.22;103122.53;10213012;28;20045;-68
2021/03/06 00:51:42;;;;;;;12.52;2.83;;;;;;;1.11;70.21;103118.03;10205128;28;20423;-68
2021/03/06 00:56:38;;;;;;;9.98;2.35;;;;;;;1.00;70.37;103112.16;10198401;28;20050;-67
2021/03/06 01:01:34;;;;;;;14.00;2.17;;;;;;;0.96;70.66;103120.81;10204297;28;20444;-68
2021/03/06 01:06:31;;;;;;;12.02;2.38;;;;;;;0.90;70.42;103122.41;10208321;28;20054;-68
2021/03/06 01:11:27;;;;;;;11.77;2.53;;;;;;;0.77;71.36;103111.53;10209453;28;20045;-69
2021/03/06 01:16:23;;;;;;;14.00;2.38;;;;;;;0.79;71.15;103104.06;10187909;28;20507;-67
2021/03/06 01:21:19;;;;;;;9.25;2.08;;;;;;;0.81;70.98;103102.03;10203036;28;20415;-68
2021/03/06 01:26:15;;;;;;;7.03;1.85;;;;;;;0.76;71.91;103110.69;10207025;28;20107;-67
2021/03/06 01:31:11;;;;;;;10.90;1.63;;;;;;;0.71;71.42;103102.34;10199348;28;20046;-67
2021/03/06 01:36:07;;;;;;;14.05;2.42;;;;;;;0.61;71.84;103097.31;10196463;28;20049;-68
2021/03/06 01:41:03;;;;;;;12.30;1.90;;;;;;;0.57;71.89;103098.72;10195553;28;20045;-70
2021/03/06 01:45:59;;;;;;;7.95;1.67;;;;;;;0.63;72.26;103095.25;10199609;28;20042;-68
2021/03/06 01:50:56;;;;;;;8.85;2.28;;;;;;;0.57;71.69;103090.63;10205008;28;20049;-67
2021/03/06 01:55:52;;;;;;;10.70;1.65;;;;;;;0.58;71.77;103089.63;10209583;28;20100;-68
2021/03/06 02:00:48;;;;;;;9.20;1.58;;;;;;;0.68;72.17;103081.22;10207834;28;20500;-69
2021/03/06 02:05:45;;;;;;;11.20;2.78;;;;;;;0.34;73.00;103073.84;10211333;28;20107;-72
2021/03/06 02:10:43;;;;;;;11.07;1.80;;;;;;;0.61;72.04;103065.00;10200807;28;20056;-70
2021/03/06 02:16:18;;;;;;;10.07;1.73;;;;;;;0.47;72.95;103057.84;10199055;28;20466;-69
2021/03/06 02:21:30;;;;;;;11.88;2.03;;;;;;;0.53;73.15;103062.41;10204347;28;20120;-68
2021/03/06 02:26:44;;;;;;;6.25;1.52;;;;;;;0.45;73.10;103059.88;10211573;28;20080;-69
2021/03/06 02:31:41;;;;;;;9.75;1.55;;;;;;;0.35;74.14;103064.75;10208555;28;20120;-68
2021/03/06 02:36:41;;;;;;;7.00;1.40;;;;;;;0.45;73.52;103049.09;10190039;28;20608;-71
2021/03/06 02:41:37;;;;;;;9.93;1.70;;;;;;;0.43;73.33;103051.16;10202874;28;20099;-70
2021/03/06 02:46:35;;;;;;;15.30;2.63;;;;;;;0.37;73.12;103051.91;10201228;28;20061;-71
2021/03/06 02:51:38;;;;;;;6.63;1.80;;;;;;;0.57;73.57;103042.16;10211304;28;20049;-70
2021/03/06 02:56:36;;;;;;;8.87;1.67;;;;;;;0.76;73.15;103039.84;10207424;28;20049;-70
2021/03/06 03:02:02;;;;;;;10.05;1.88;;;;;;;0.78;73.47;103027.00;10214191;28;20049;-70
2021/03/06 03:07:08;;;;;;;15.63;2.22;;;;;;;0.74;73.46;103031.97;10211227;28;20486;-71
2021/03/06 03:12:13;;;;;;;10.95;1.67;;;;;;;0.86;73.57;103026.03;10210349;28;20775;-71
2021/03/06 03:18:03;;;;;;;7.65;1.48;;;;;;;1.08;72.95;103026.81;10210000;28;20060;-71
2021/03/06 03:23:08;;;;;;;8.75;2.45;;;;;;;1.08;72.88;103010.66;10210183;28;20111;-70
2021/03/06 03:28:05;;;;;;;7.95;1.65;;;;;;;1.21;72.59;103024.22;10245664;28;20127;-70
2021/03/06 03:33:07;;;;;;;10.20;2.20;;;;;;;1.12;73.64;103010.06;10262214;28;20041;-71
2021/03/06 03:38:04;;;;;;;7.43;1.30;;;;;;;1.22;73.29;103007.00;10258096;28;20554;-70
2021/03/06 03:43:02;;;;;;;6.45;1.23;;;;;;;1.40;72.78;103014.56;10257332;28;20487;-71
2021/03/06 03:47:59;;;;;;;10.00;1.58;;;;;;;1.35;73.28;103012.47;10250530;28;20067;-68
2021/03/06 03:52:56;;;;;;;9.32;1.35;;;;;;;1.29;74.16;103001.66;10265255;28;20045;-67
2021/03/06 03:57:52;;;;;;;9.27;1.45;;;;;;;1.27;74.33;103005.34;10248535;28;20045;-69
2021/03/06 04:02:48;;;;;;;9.98;1.60;;;;;;;1.22;74.84;103020.47;10258447;28;20487;-70
2021/03/06 04:07:49;;;;;;;10.80;1.40;;;;;;;1.10;75.44;103008.59;10248712;28;20053;-67
2021/03/06 04:12:50;;;;;;;5.47;1.30;;;;;;;1.19;75.51;103018.19;10248409;28;20179;-71
2021/03/06 04:17:48;;;;;;;10.60;2.20;;;;;;;1.20;76.42;103020.66;10252337;28;20050;-70
2021/03/06 04:22:45;;;;;;;10.90;1.75;;;;;;;1.14;77.71;103026.00;10251985;28;20576;-68
2021/03/06 04:27:41;;;;;;;5.25;1.70;;;;;;;1.06;78.65;103013.53;10248893;28;20176;-70
2021/03/06 04:32:40;;;;;;;12.48;3.00;;;;;;;1.02;79.00;103010.41;10247728;28;20041;-70
2021/03/06 04:37:40;;;;;;;7.45;1.75;;;;;;;1.04;79.82;103021.84;10245388;28;20091;-71
2021/03/06 04:42:37;;;;;;;8.77;2.53;;;;;;;1.02;80.14;103018.50;10238818;28;20044;-71
2021/03/06 04:47:34;;;;;;;13.00;1.75;;;;;;;1.11;80.39;103021.03;10250291;28;20056;-70
2021/03/06 04:52:30;;;;;;;12.90;3.38;;;;;;;1.20;80.39;103022.53;10247235;28;20411;-69
2021/03/06 04:57:26;;;;;;;11.68;3.22;;;;;;;1.20;80.66;103009.06;10251317;28;20044;-69
2021/03/06 05:02:23;;;;;;;11.93;2.50;;;;;;;1.10;81.66;103016.69;10247903;28;20049;-68
2021/03/06 05:07:19;;;;;;;14.93;2.60;;;;;;;1.22;81.31;103013.22;10242028;28;20045;-69
2021/03/06 05:12:15;;;;;;;13.68;3.25;;;;;;;1.12;82.67;103022.69;10241896;28;20045;-70
2021/03/06 05:17:11;;;;;;;12.23;3.03;;;;;;;1.31;81.92;103013.88;10229785;28;20151;-71
2021/03/06 05:22:07;;;;;;;14.30;3.47;;;;;;;1.27;82.44;103021.53;10239604;28;20037;-70
2021/03/06 05:27:03;;;;;;;8.43;3.22;;;;;;;1.36;82.15;103022.19;10246443;28;20107;-71
2021/03/06 05:32:00;;;;;;;12.45;3.75;;;;;;;1.21;82.63;103021.50;10243308;28;20557;-70
2021/03/06 05:36:57;;;;;;;11.82;3.70;;;;;;;1.33;82.30;103025.31;10241817;28;20068;-70
2021/03/06 05:41:54;;;;;;;10.50;3.83;;;;;;;1.38;82.53;103024.72;10251560;28;20060;-70
2021/03/06 05:46:51;;;;;;;16.77;4.85;;;;;;;1.44;82.61;103022.06;10244227;28;20122;-70
2021/03/06 05:51:48;;;;;;;10.93;3.85;;;;;;;1.35;83.04;103023.25;10242057;28;20052;-70
2021/03/06 05:56:44;;;;;;;10.52;3.83;;;;;;;1.39;83.64;103023.66;10239643;28;20502;-70
2021/03/06 06:01:42;;;;;;;18.30;4.20;;;;;;;1.54;83.38;103031.63;10241195;28;20041;-68
2021/03/06 06:06:39;;;;;;;16.25;3.55;;;;;;;1.60;83.76;103020.88;10241005;28;20136;-68
2021/03/06 06:11:36;;;;;;;10.15;3.20;;;;;;;1.64;83.95;103026.69;10240043;28;20080;-69
2021/03/06 06:16:33;;;;;;;16.80;4.18;;;;;;;1.79;83.69;103035.47;10244830;28;20060;-70
2021/03/06 06:21:44;;;;;;;9.88;3.47;;;;;;;1.73;83.66;103030.88;10240894;28;20115;-69
2021/03/06 06:27:00;;;;;;;14.40;4.13;;;;;;;1.76;83.84;103025.06;10246414;28;20514;-70
2021/03/06 06:31:56;;;;;;;10.35;3.97;;;;;;;1.74;83.13;103031.69;10246761;28;20046;-68
2021/03/06 06:36:52;;;;;;;12.48;3.65;;;;;;;1.57;83.76;103031.22;10246535;28;20077;-69
2021/03/06 06:42:00;;;;;;;11.77;3.97;;;;;;;1.70;83.62;103036.69;10247422;28;20552;-70
2021/03/06 06:46:57;;;;;;;17.27;4.75;;;;;;;1.54;84.53;103037.03;10242203;28;20513;-72
2021/03/06 06:52:00;;;;;;;18.30;4.40;;;;;;;1.51;84.86;103042.78;10238249;28;20049;-68
2021/03/06 06:57:10;;;;;;;;;;;;;;;1.57;85.26;103048.22;10248540;28;20045;-72
2021/03/06 07:02:09;;;;;;;10.77;4.85;;;;;;;1.62;85.60;103055.72;10255986;28;19995;-68
2021/03/06 07:07:05;;;;;;;12.55;3.70;;;;;;;1.92;85.23;103072.44;10244744;28;20395;-71
2021/03/06 07:12:16;;;;;;;17.45;4.25;;;;;;;2.09;85.05;103073.75;10243825;28;20041;-69
2021/03/06 07:17:12;;;;;;;22.02;4.38;;;;;;;2.33;84.41;103073.41;10231800;28;20395;-68
2021/03/06 07:22:08;;;;;;;15.38;4.68;;;;;;;2.45;83.75;103067.19;10237979;28;20041;-69
2021/03/06 07:27:05;;;;;;;10.23;3.45;;;;;;;2.60;83.61;103067.00;10232878;28;20491;-68
2021/03/06 07:32:04;;;;;;;14.73;5.20;;;;;;;2.74;82.72;103065.97;10236615;28;20090;-68
2021/03/06 07:37:05;;;;;;;21.20;3.08;;;;;;;2.79;82.38;103073.44;10238021;28;20049;-70
2021/03/06 07:42:03;;;;;;;16.40;3.47;;;;;;;2.81;82.43;103065.13;10241321;28;20047;-68
2021/03/06 07:47:00;;;;;;;22.98;4.47;;;;;;;2.92;82.07;103072.59;10252582;28;20049;-67
2021/03/06 07:51:57;;;;;;;17.75;3.25;;;;;;;3.00;82.07;103075.09;10254337;28;20045;-72
2021/03/06 07:56:54;;;;;;;10.82;3.70;;;;;;;3.13;82.50;103080.50;10242545;28;20135;-67
2021/03/06 08:01:54;;;;;;;20.88;3.47;;;;;;;2.99;83.73;103086.94;10258634;28;20124;-66
2021/03/06 08:07:11;;;;;;;18.65;4.60;;;;;;;3.14;84.17;103087.56;10246315;28;20080;-66
2021/03/06 08:12:07;;;;;;;19.20;5.10;;;;;;;3.13;84.18;103091.31;10259806;28;20048;-71
2021/03/06 08:17:30;;;;;;;18.48;3.85;;;;;;;3.17;84.05;103097.94;10248153;28;20071;-70
2021/03/06 08:22:26;;;;;;;17.75;3.60;;;;;;;3.40;84.25;103102.09;10252753;28;20045;-68
2021/03/06 08:27:23;;;;;;;9.25;4.22;;;;;;;3.44;83.21;103103.31;10248754;28;20453;-68
2021/03/06 08:32:25;;;;;;;13.13;3.40;;;;;;;3.44;83.79;103108.72;10246912;28;20041;-68
2021/03/06 08:37:21;;;;;;;17.75;4.05;;;;;;;3.59;83.64;103117.41;10245620;28;20503;-70
2021/03/06 08:42:23;;;;;;;20.50;5.50;;;;;;;3.55;83.71;103116.22;10236218;28;20092;-69
2021/03/06 08:47:30;;;;;;;14.45;4.82;;;;;;;3.71;82.86;103105.94;10252136;28;20548;-69
2021/03/06 08:52:30;;;;;;;15.73;4.30;;;;;;;3.86;82.35;103117.34;10241322;28;20057;-70
2021/03/06 08:57:35;;;;;;;17.25;4.50;;;;;;;3.91;81.66;103116.72;10244054;28;20594;-70
2021/03/06 09:02:36;;;;;;;12.88;4.30;;;;;;;4.08;80.77;103115.16;10236077;28;20046;-68
2021/03/06 09:07:34;;;;;;;18.48;5.22;;;;;;;4.24;80.49;103135.50;10243148;28;20099;-69
2021/03/06 09:12:41;;;;;;;15.55;4.80;;;;;;;4.50;80.10;103128.28;10238422;28;20064;-69
2021/03/06 09:17:38;;;;;;;15.75;5.93;;;;;;;4.42;81.02;103126.66;10241874;28;20045;-67
2021/03/06 09:22:44;;;;;;;16.15;4.05;;;;;;;4.28;80.35;103136.75;10234906;28;21738;-67
2021/03/06 09:27:48;;;;;;;13.45;4.18;;;;;;;4.27;80.73;103135.09;10238378;28;20423;-69
2021/03/06 09:32:57;;;;;;;10.65;3.28;;;;;;;4.43;79.97;103131.03;10249789;28;20114;-67
2021/03/06 09:38:11;;;;;;;7.43;3.70;;;;;;;4.36;80.44;103128.38;10238561;28;20468;-68
2021/03/06 09:43:08;;;;;;;7.03;2.90;;;;;;;4.36;81.20;103131.09;10235773;28;20045;-68
2021/03/06 09:48:11;;;;;;;14.32;2.92;;;;;;;4.35;81.84;103126.69;10237567;28;20049;-68
2021/03/06 09:53:12;;;;;;;6.38;2.15;;;;;;;4.29;81.90;103118.63;10238233;28;20060;-68
2021/03/06 09:58:19;;;;;;;12.85;3.15;;;;;;;4.38;82.73;103120.84;10229980;28;20045;-67
2021/03/06 10:03:37;;;;;;;10.07;3.67;;;;;;;4.26;82.40;103128.00;10234230;28;20096;-67
2021/03/06 10:08:38;;;;;;;10.73;3.92;;;;;;;4.46;81.84;103116.25;10227314;28;20064;-68
2021/03/06 10:13:34;;;;;;;10.57;4.53;;;;;;;4.46;80.93;103135.22;10234351;28;20093;-67
2021/03/06 10:18:36;;;;;;;15.27;5.93;;;;;;;4.60;81.24;103126.78;10226367;28;20489;-66
2021/03/06 10:23:35;;;;;;;15.60;4.47;;;;;;;4.67;79.59;103124.00;10230068;28;20043;-65
2021/03/06 10:28:31;;;;;;;13.68;5.53;;;;;;;4.88;79.75;103124.72;10246004;28;20140;-66
2021/03/06 10:33:38;;;;;;;10.05;3.33;;;;;;;4.76;77.22;103122.69;10236330;28;20146;-66
2021/03/06 10:38:36;;;;;;;10.77;3.30;;;;;;;4.87;76.41;103128.44;10243480;28;20166;-68
2021/03/06 10:43:43;;;;;;;10.90;3.20;;;;;;;4.95;75.36;103120.06;10272631;28;20052;-69
2021/03/06 10:48:40;;;;;;;8.20;3.40;;;;;;;5.05;74.96;103114.97;10277802;28;20098;-68
2021/03/06 10:53:37;;;;;;;9.38;3.30;;;;;;;4.93;74.10;103116.72;10270340;28;20409;-68
2021/03/06 10:58:44;;;;;;;7.07;2.95;;;;;;;4.72;74.39;103132.31;10268963;28;20058;-67
2021/03/06 11:03:59;;;;;;;;;;;;;;;4.77;75.12;103118.09;10256439;28;20045;-68
2021/03/06 11:09:04;;;;;;;9.70;2.85;;;;;;;4.78;74.03;103117.91;10257398;28;19983;-67
2021/03/06 11:14:28;;;;;;;9.82;2.70;;;;;;;4.76;73.34;103106.44;10261702;28;20049;-69
2021/03/06 11:19:24;;;;;;;7.53;2.70;;;;;;;4.94;72.74;103110.25;10271727;28;20518;-68
2021/03/06 11:24:20;;;;;;;8.80;2.10;;;;;;;4.90;72.26;103111.72;10272795;28;20564;-67
2021/03/06 11:29:16;;;;;;;5.63;2.03;;;;;;;4.89;71.71;103121.75;10273118;28;20045;-69
2021/03/06 11:34:23;;;;;;;6.80;1.88;;;;;;;4.83;71.70;103118.06;10260277;28;20049;-69
2021/03/06 11:39:19;;;;;;;9.60;2.45;;;;;;;5.08;71.33;103125.34;10243737;28;20055;-69
2021/03/06 11:44:15;;;;;;;8.05;2.90;;;;;;;4.98;70.71;103125.03;10244461;28;20036;-69
2021/03/06 11:49:11;;;;;;;8.23;3.47;;;;;;;5.08;70.35;103114.50;10236990;28;20045;-69
2021/03/06 11:54:07;;;;;;;11.43;4.20;;;;;;;5.17;69.57;103094.19;10255309;28;20034;-69
2021/03/06 11:59:03;;;;;;;8.80;4.43;;;;;;;5.15;69.81;103082.75;10262855;28;20103;-68
2021/03/06 12:03:59;;;;;;;10.35;5.07;;;;;;;5.39;70.16;103094.59;10246991;28;20453;-69
2021/03/06 12:08:55;;;;;;;9.77;4.63;;;;;;;5.48;69.25;103081.59;10240065;28;20069;-72
2021/03/06 12:13:51;;;;;;;6.63;3.42;;;;;;;5.32;68.57;103088.44;10243797;28;20048;-68
2021/03/06 12:18:47;;;;;;;7.78;4.43;;;;;;;5.19;69.67;103070.38;10243639;28;20045;-68
2021/03/06 12:23:44;;;;;;;9.23;3.03;;;;;;;5.18;71.41;103055.19;10234724;28;20049;-68
2021/03/06 12:28:40;;;;;;;6.80;2.13;;;;;;;5.11;72.52;103054.41;10261268;28;20072;-70
2021/03/06 12:33:36;;;;;;;7.22;1.35;;;;;;;5.15;72.67;103065.63;10270288;28;20126;-68
2021/03/06 12:38:32;;;;;;;8.55;1.52;;;;;;;5.41;72.31;103050.97;10260901;28;20134;-67
2021/03/06 12:43:29;;;;;;;5.65;1.50;;;;;;;5.70;71.07;103047.47;10271520;28;20191;-67
2021/03/06 12:48:26;;;;;;;6.72;1.58;;;;;;;5.89;69.58;103031.16;10263135;28;20136;-68
2021/03/06 12:53:22;;;;;;;8.50;1.27;;;;;;;5.64;69.22;103036.69;10268880;28;20144;-66
2021/03/06 12:58:18;;;;;;;4.32;0.90;;;;;;;5.47;68.58;103037.31;10258091;28;20552;-67
2021/03/06 13:03:14;;;;;;;4.13;1.05;;;;;;;5.60;68.91;103030.91;10262394;28;20079;-66
2021/03/06 13:08:10;;;;;;;5.50;1.13;;;;;;;5.61;66.36;103021.69;10238259;28;20052;-68
2021/03/06 13:13:07;;;;;;;5.97;0.80;;;;;;;5.76;64.91;103012.34;10240896;28;20049;-71
2021/03/06 13:18:03;;;;;;;3.58;0.75;;;;;;;5.84;63.87;103009.31;10236960;28;20049;-68
2021/03/06 13:23:00;;;;;;;6.43;0.95;;;;;;;5.86;63.18;103024.31;10233846;28;20041;-68
2021/03/06 13:27:56;;;;;;;5.93;0.75;;;;;;;5.91;61.80;103010.88;10247204;28;20585;-68
2021/03/06 13:32:52;;;;;;;5.97;0.77;;;;;;;6.04;62.19;103012.59;10253866;28;20041;-67
2021/03/06 13:37:49;;;;;;;3.30;0.50;;;;;;;7.46;57.48;103013.50;10244900;28;20125;-67
2021/03/06 13:42:45;;;;;;;2.40;0.52;;;;;;;7.79;55.57;103009.25;10255844;28;20138;-72
2021/03/06 13:47:41;;;;;;;6.43;0.93;;;;;;;6.99;57.36;102996.44;10252897;28;20747;-71
2021/03/06 13:52:38;;;;;;;3.97;0.57;;;;;;;6.55;58.56;102982.38;10259103;28;20063;-69
2021/03/06 13:57:36;;;;;;;8.52;1.83;;;;;;;6.64;59.43;102975.53;10238260;28;20099;-70
2021/03/06 14:02:32;;;;;;;5.80;1.05;;;;;;;6.74;59.08;102973.03;10226909;28;20091;-69
2021/03/06 14:07:29;;;;;;;5.53;1.13;;;;;;;6.83;58.19;102973.50;10251541;28;20053;-69
2021/03/06 14:12:25;;;;;;;2.97;0.60;;;;;;;6.94;57.83;102968.06;10263632;28;20588;-69
2021/03/06 14:17:22;;;;;;;4.10;0.60;;;;;;;7.79;54.33;102960.22;10259197;28;20488;-69
2021/03/06 14:22:19;;;;;;;6.90;0.70;;;;;;;8.23;53.92;102955.81;10258925;28;20511;-69
2021/03/06 14:27:16;;;;;;;6.75;0.60;;;;;;;7.17;54.78;102958.19;10256479;28;20045;-69
2021/03/06 14:32:23;;;;;;;4.35;0.80;;;;;;;6.95;55.97;102945.22;10236661;22;20241;-69
2021/03/06 14:37:24;;;;;;;2.83;0.50;;;;;;;6.59;57.74;102940.88;10218697;28;20503;-67
2021/03/06 14:42:20;;;;;;;5.32;0.98;;;;;;;6.62;58.34;102950.47;10228366;28;20052;-66
2021/03/06 14:47:16;;;;;;;7.43;1.08;;;;;;;6.26;59.76;102947.69;10224775;28;20053;-69
2021/03/06 14:52:13;;;;;;;6.82;1.23;;;;;;;6.36;59.59;102939.00;10228490;28;20052;-68
2021/03/06 14:57:11;;;;;;;8.18;1.30;;;;;;;6.10;60.32;102938.38;10222690;28;20423;-65
2021/03/06 15:02:07;;;;;;;6.00;1.42;;;;;;;6.09;61.03;102939.41;10214175;28;20046;-68
2021/03/06 15:07:08;;;;;;;5.68;1.33;;;;;;;6.04;61.97;102927.59;10220489;28;20050;-64
2021/03/06 15:12:05;;;;;;;4.22;1.10;;;;;;;5.82;61.64;102932.69;10201271;28;20073;-67
2021/03/06 15:17:01;;;;;;;5.80;1.33;;;;;;;5.65;62.12;102919.78;10192587;28;20458;-65
2021/03/06 15:21:58;;;;;;;11.45;1.52;;;;;;;5.80;63.07;102911.22;10190793;28;20070;-67
2021/03/06 15:26:54;;;;;;;9.27;1.00;;;;;;;5.59;64.00;102919.88;10191780;28;20093;-69
2021/03/06 15:31:51;;;;;;;8.43;1.20;;;;;;;5.77;63.87;102921.69;10198992;28;20049;-65
2021/03/06 15:36:47;;;;;;;5.68;0.65;;;;;;;5.57;63.77;102922.81;10184875;28;20077;-67
2021/03/06 15:41:44;;;;;;;2.38;0.93;;;;;;;5.42;63.50;102923.22;10190602;28;20046;-69
2021/03/06 15:46:40;;;;;;;6.97;0.70;;;;;;;5.58;63.43;102919.03;10186822;28;20104;-67
2021/03/06 15:51:37;;;;;;;6.50;0.90;;;;;;;5.45;63.89;102913.78;10184929;28;20050;-66
2021/03/06 15:56:33;;;;;;;4.85;1.00;;;;;;;5.31;63.59;102904.19;10186605;28;20061;-66
2021/03/06 16:01:29;;;;;;;7.95;0.88;;;;;;;5.23;63.40;102914.28;10198512;28;20057;-66
2021/03/06 16:06:25;;;;;;;3.60;0.50;;;;;;;5.04;62.41;102901.81;10206266;28;20411;-66
2021/03/06 16:11:22;;;;;;;6.10;0.70;;;;;;;5.11;61.07;102894.41;10192323;28;20407;-68
2021/03/06 16:16:19;;;;;;;5.85;0.73;;;;;;;4.96;62.10;102894.78;10196485;28;20128;-67
2021/03/06 16:21:15;;;;;;;1.73;0.57;;;;;;;4.82;62.42;102910.38;10208346;28;20052;-66
2021/03/06 16:26:11;;;;;;;6.18;1.02;;;;;;;4.89;62.72;102904.88;10195552;28;20050;-67
2021/03/06 16:31:07;;;;;;;9.65;1.33;;;;;;;5.12;62.42;102904.19;10196694;28;20516;-68
2021/03/06 16:36:04;;;;;;;4.30;1.10;;;;;;;4.89;63.38;102904.06;10197868;28;20503;-65
2021/03/06 16:41:00;;;;;;;4.55;1.20;;;;;;;4.76;65.15;102903.16;10198694;28;20076;-69
2021/03/06 16:45:56;;;;;;;9.80;2.20;;;;;;;4.89;64.52;102904.06;10200085;28;20423;-68
2021/03/06 16:50:54;;;;;;;8.80;1.60;;;;;;;4.76;65.09;102905.88;10193193;28;20480;-68
2021/03/06 16:55:51;;;;;;;8.30;1.15;;;;;;;4.74;65.30;102899.84;10203425;28;20046;-69
2021/03/06 17:00:49;;;;;;;9.45;1.30;;;;;;;4.85;65.38;102907.22;10190142;28;20053;-69
2021/03/06 17:05:45;;;;;;;12.57;0.98;;;;;;;4.68;66.43;102905.34;10193835;28;20048;-69
2021/03/06 17:10:43;;;;;;;5.97;0.82;;;;;;;4.36;68.80;102900.88;10199872;28;20080;-69
2021/03/06 17:15:39;;;;;;;12.50;1.63;;;;;;;4.41;69.07;102903.72;10200605;28;20046;-68
2021/03/06 17:20:35;;;;;;;3.30;0.57;;;;;;;4.40;69.79;102899.34;10206849;28;20150;-68
2021/03/06 17:25:31;;;;;;;7.82;1.30;;;;;;;4.50;69.10;102895.28;10204774;28;20050;-68
2021/03/06 17:30:28;;;;;;;8.82;1.20;;;;;;;4.26;69.76;102900.53;10188839;28;20057;-68
2021/03/06 17:35:24;;;;;;;9.25;1.92;;;;;;;4.24;69.23;102897.19;10199434;28;20526;-68
2021/03/06 17:40:20;;;;;;;11.40;2.05;;;;;;;4.37;68.81;102897.09;10198211;28;20110;-68
2021/03/06 17:45:16;;;;;;;10.52;3.28;;;;;;;4.10;69.83;102891.06;10199136;28;20045;-67
2021/03/06 17:50:15;;;;;;;19.08;4.60;;;;;;;4.14;69.63;102886.06;10192837;28;20440;-68
2021/03/06 17:55:11;;;;;;;9.55;2.60;;;;;;;4.15;70.17;102885.81;10195565;28;20519;-68
2021/03/06 18:00:11;;;;;;;6.03;2.28;;;;;;;4.07;70.53;102890.69;10191216;28;20080;-66
2021/03/06 18:05:09;;;;;;;6.85;1.48;;;;;;;4.28;70.16;102884.88;10176375;28;20106;-69
2021/03/06 18:10:07;;;;;;;11.63;3.60;;;;;;;4.17;70.25;102891.00;10179098;28;20054;-66
2021/03/06 18:15:05;;;;;;;10.57;1.38;;;;;;;3.98;70.82;102904.50;10187249;28;20045;-66
2021/03/06 18:20:03;;;;;;;6.68;1.30;;;;;;;3.92;70.50;102894.56;10201014;28;20053;-67
2021/03/06 18:24:59;;;;;;;10.35;1.90;;;;;;;3.95;70.96;102893.28;10195353;28;20095;-67
2021/03/06 18:29:56;;;;;;;11.63;2.70;;;;;;;3.93;71.35;102901.63;10195078;28;20779;-67
2021/03/06 18:34:52;;;;;;;10.82;1.58;;;;;;;3.82;70.25;102880.66;10189372;28;20046;-69
2021/03/06 18:39:48;;;;;;;8.10;1.58;;;;;;;4.02;69.40;102893.25;10195155;28;20107;-67
2021/03/06 18:45:00;;;;;;;3.58;0.90;;;;;;;3.83;70.84;102885.06;10197072;28;20045;-68
2021/03/06 18:49:56;;;;;;;7.18;1.63;;;;;;;3.87;70.62;102883.53;10199395;28;20076;-68
2021/03/06 18:54:52;;;;;;;12.13;2.20;;;;;;;3.76;70.54;102876.13;10191033;28;20060;-68
2021/03/06 18:59:48;;;;;;;10.38;2.15;;;;;;;3.69;70.91;102872.63;10199427;28;20431;-66
2021/03/06 19:04:45;;;;;;;10.63;2.45;;;;;;;3.79;70.07;102863.00;10185661;28;20753;-67
2021/03/06 19:09:41;;;;;;;9.13;1.75;;;;;;;3.72;70.04;102872.22;10192222;28;20054;-68
2021/03/06 19:14:38;;;;;;;5.95;1.25;;;;;;;3.45;70.53;102861.56;10191457;28;20877;-68
2021/03/06 19:19:34;;;;;;;8.93;2.22;;;;;;;3.56;69.89;102858.16;10185256;28;20053;-67
2021/03/06 19:24:30;;;;;;;4.57;1.10;;;;;;;3.39;70.60;102859.75;10190237;28;20049;-67
2021/03/06 19:29:26;;;;;;;4.13;1.25;;;;;;;3.28;70.73;102844.19;10190261;28;20104;-66
2021/03/06 19:34:23;;;;;;;7.47;1.55;;;;;;;3.12;71.40;102851.75;10191252;28;20050;-66
2021/03/06 19:39:19;;;;;;;7.57;2.13;;;;;;;3.08;71.67;102844.28;10193735;28;20049;-67
2021/03/06 19:44:15;;;;;;;5.65;1.40;;;;;;;3.05;71.69;102844.72;10185318;28;20451;-68
2021/03/06 19:49:11;;;;;;;12.13;2.20;;;;;;;3.17;71.25;102837.59;10184063;28;20132;-66
2021/03/06 19:54:08;;;;;;;4.63;1.23;;;;;;;2.88;72.54;102834.41;10193359;28;20151;-70
2021/03/06 19:59:05;;;;;;;7.53;1.80;;;;;;;2.98;72.69;102833.94;10182975;28;20073;-68
2021/03/06 20:04:02;;;;;;;13.52;1.80;;;;;;;2.94;72.26;102827.31;10200537;28;20095;-66
2021/03/06 20:08:58;;;;;;;9.13;2.10;;;;;;;2.85;72.71;102818.63;10199147;28;20107;-70
2021/03/06 20:13:54;;;;;;;7.82;2.28;;;;;;;2.96;72.70;102809.00;10202532;28;20073;-68
2021/03/06 20:18:50;;;;;;;12.10;2.72;;;;;;;2.84;72.61;102810.75;10198409;28;21082;-67
2021/03/06 20:23:46;;;;;;;6.00;1.63;;;;;;;2.85;72.64;102807.81;10197255;28;20042;-67
2021/03/06 20:28:42;;;;;;;8.98;2.20;;;;;;;2.78;73.40;102800.78;10183003;28;20042;-67
2021/03/06 20:33:39;;;;;;;6.20;2.10;;;;;;;2.69;73.59;102798.34;10197476;28;20041;-68
2021/03/06 20:38:35;;;;;;;12.18;3.50;;;;;;;2.73;73.55;102794.13;10199133;28;20156;-67
2021/03/06 20:43:31;;;;;;;7.90;2.08;;;;;;;2.88;73.72;102802.00;10197969;28;20050;-68
2021/03/06 20:48:27;;;;;;;5.95;1.80;;;;;;;2.89;74.06;102795.53;10186064;28;20049;-69
2021/03/06 20:53:24;;;;;;;9.68;2.10;;;;;;;2.82;74.02;102786.63;10186989;28;20096;-67
2021/03/06 20:58:21;;;;;;;10.10;1.73;;;;;;;3.03;73.65;102799.00;10188851;28;20052;-69
2021/03/06 21:03:17;;;;;;;6.97;1.30;;;;;;;2.97;73.47;102789.06;10193998;28;20063;-66
2021/03/06 21:08:13;;;;;;;8.82;1.63;;;;;;;2.92;73.28;102791.56;10197142;28;20372;-66
2021/03/06 21:13:09;;;;;;;9.88;1.70;;;;;;;2.97;72.78;102797.19;10192502;28;20045;-67
2021/03/06 21:18:05;;;;;;;7.90;1.80;;;;;;;2.97;72.20;102794.47;10192327;28;20163;-68
2021/03/06 21:23:02;;;;;;;6.28;1.90;;;;;;;3.02;71.65;102789.25;10187391;28;20137;-66
2021/03/06 21:27:58;;;;;;;8.18;2.00;;;;;;;2.95;71.88;102793.84;10194018;28;20046;-66
2021/03/06 21:32:56;;;;;;;5.78;1.65;;;;;;;2.82;72.87;102785.81;10182973;28;20050;-66
2021/03/06 21:37:52;;;;;;;7.95;1.83;;;;;;;2.90;73.44;102777.44;10174102;28;20484;-67
2021/03/06 21:42:48;;;;;;;5.70;1.73;;;;;;;2.84;73.76;102772.91;10183434;28;20049;-67
2021/03/06 21:47:44;;;;;;;7.88;1.60;;;;;;;2.91;73.40;102757.50;10179304;28;20045;-69
2021/03/06 21:52:40;;;;;;;9.20;2.25;;;;;;;2.83;74.07;102755.03;10199856;28;20742;-67
2021/03/06 21:57:36;;;;;;;4.65;1.52;;;;;;;2.89;73.28;102760.41;10196284;28;20045;-68
2021/03/06 22:02:32;;;;;;;5.28;1.80;;;;;;;2.87;73.04;102750.84;10190177;28;20073;-68
2021/03/06 22:07:28;;;;;;;4.72;1.80;;;;;;;2.87;72.53;102745.44;10199670;28;20057;-67
2021/03/06 22:12:24;;;;;;;6.55;1.60;;;;;;;2.78;71.92;102742.16;10184822;28;20053;-69
2021/03/06 22:17:21;;;;;;;4.50;1.80;;;;;;;2.90;71.47;102740.47;10165925;28;20057;-67
2021/03/06 22:22:17;;;;;;;8.48;1.90;;;;;;;3.02;70.88;102737.91;10187021;28;20046;-67
2021/03/06 22:27:14;;;;;;;5.65;1.15;;;;;;;2.87;70.62;102724.66;10193951;28;20150;-67
2021/03/06 22:32:11;;;;;;;6.63;1.70;;;;;;;2.87;70.42;102723.84;10193357;28;20060;-70
2021/03/06 22:37:08;;;;;;;8.55;2.60;;;;;;;2.95;70.19;102720.91;10204955;28;20038;-68
2021/03/06 22:42:07;;;;;;;6.97;2.70;;;;;;;2.70;69.88;102718.94;10186022;28;20073;-68
2021/03/06 22:47:03;;;;;;;6.80;1.88;;;;;;;2.83;69.50;102711.81;10190186;28;20787;-68
2021/03/06 22:52:00;;;;;;;7.20;1.42;;;;;;;2.85;69.31;102709.72;10197798;28;20049;-71
2021/03/06 22:56:56;;;;;;;9.32;1.83;;;;;;;2.87;69.40;102692.25;10190836;28;20057;-67
2021/03/06 23:01:52;;;;;;;10.90;1.55;;;;;;;2.84;69.82;102697.25;10192741;28;20052;-72